createdAt,value
2019-05-10T00:00:34.058Z,1000.53
2019-05-10T00:01:43.752Z,1000.53
2019-05-10T00:02:53.729Z,1000.54
2019-05-10T00:04:03.184Z,1000.52
2019-05-10T00:05:12.637Z,1000.6
2019-05-10T00:06:21.841Z,1000.56
2019-05-10T00:07:30.790Z,1000.6
2019-05-10T00:08:40.228Z,1000.58
2019-05-10T00:09:49.656Z,1000.59
2019-05-10T00:10:59.109Z,1000.62
2019-05-10T00:12:08.853Z,1000.65
2019-05-10T00:13:18.679Z,1000.64
2019-05-10T00:14:28.176Z,1000.63
2019-05-10T00:15:37.937Z,1000.63
2019-05-10T00:16:47.872Z,1000.68
2019-05-10T00:17:57.698Z,1000.66
2019-05-10T00:19:07.386Z,1000.66
2019-05-10T00:20:16.589Z,1000.7
2019-05-10T00:21:26.291Z,1000.71
2019-05-10T00:22:35.492Z,1000.7
2019-05-10T00:23:44.687Z,1000.68
2019-05-10T00:25:03.588Z,1000.7
2019-05-10T00:26:13.126Z,1000.71
2019-05-10T00:27:22.326Z,1000.73
2019-05-10T00:28:31.580Z,1000.73
2019-05-10T00:29:40.814Z,1000.68
2019-05-10T00:30:50.279Z,1000.7
2019-05-10T00:31:59.744Z,1000.69
2019-05-10T00:33:08.993Z,1000.67
2019-05-10T00:34:18.679Z,1000.67
2019-05-10T00:35:27.660Z,1000.63
2019-05-10T00:36:37.100Z,1000.64
2019-05-10T00:37:46.529Z,1000.67
2019-05-10T00:38:55.720Z,1000.64
2019-05-10T00:40:05.273Z,1000.63
2019-05-10T00:41:15.247Z,1000.61
2019-05-10T00:42:25.038Z,1000.62
2019-05-10T00:43:34.488Z,1000.65
2019-05-10T00:44:44.185Z,1000.67
2019-05-10T00:45:53.394Z,1000.63
2019-05-10T00:47:02.656Z,1000.67
2019-05-10T00:48:12.133Z,1000.7
2019-05-10T00:49:21.573Z,1000.68
2019-05-10T00:50:30.277Z,1000.71
2019-05-10T00:51:39.464Z,1000.72
2019-05-10T00:52:48.522Z,1000.7
2019-05-10T00:53:58.239Z,1000.7
2019-05-10T00:55:18.172Z,1000.73
2019-05-10T00:56:28.339Z,1000.71
2019-05-10T00:57:37.810Z,1000.77
2019-05-10T00:58:47.282Z,1000.77
2019-05-10T00:59:56.217Z,1000.76
2019-05-10T01:01:05.675Z,1000.78
2019-05-10T01:02:19.180Z,1000.78
2019-05-10T01:03:28.406Z,1000.75
2019-05-10T01:04:37.624Z,1000.83
2019-05-10T01:05:47.419Z,1000.79
2019-05-10T01:06:56.690Z,1000.8
2019-05-10T01:08:06.388Z,1000.83
2019-05-10T01:09:15.828Z,1000.82
2019-05-10T01:10:25.114Z,1000.82
2019-05-10T01:11:34.556Z,1000.82
2019-05-10T01:12:43.249Z,1000.84
2019-05-10T01:13:52.965Z,1000.82
2019-05-10T01:15:02.396Z,1000.85
2019-05-10T01:16:12.184Z,1000.83
2019-05-10T01:17:21.389Z,1000.81
2019-05-10T01:18:30.828Z,1000.89
2019-05-10T01:19:40.289Z,1000.89
2019-05-10T01:20:49.467Z,1000.89
2019-05-10T01:21:58.921Z,1000.86
2019-05-10T01:23:08.123Z,1000.89
2019-05-10T01:24:18.084Z,1000.9
2019-05-10T01:25:34.949Z,1000.92
2019-05-10T01:26:45.312Z,1000.89
2019-05-10T01:27:55.012Z,1000.91
2019-05-10T01:29:04.548Z,1000.88
2019-05-10T01:30:13.741Z,1000.91
2019-05-10T01:31:22.943Z,1000.93
2019-05-10T01:32:32.394Z,1000.93
2019-05-10T01:33:42.174Z,1000.97
2019-05-10T01:34:51.621Z,1000.97
2019-05-10T01:36:01.091Z,1001.01
2019-05-10T01:37:09.804Z,1000.96
2019-05-10T01:38:18.791Z,1001
2019-05-10T01:39:28.057Z,1001.01
2019-05-10T01:40:56.514Z,1001
2019-05-10T01:42:05.980Z,1001.03
2019-05-10T01:43:15.169Z,1001.02
2019-05-10T01:44:24.897Z,1001.03
2019-05-10T01:45:33.822Z,1001.02
2019-05-10T01:46:43.807Z,1001.05
2019-05-10T01:47:53.260Z,1001.08
2019-05-10T01:49:02.460Z,1001.11
2019-05-10T01:50:11.921Z,1001.05
2019-05-10T01:51:21.626Z,1001.1
2019-05-10T01:52:34.637Z,1001.1
2019-05-10T01:53:43.833Z,1001.12
2019-05-10T01:54:53.568Z,1001.08
2019-05-10T01:56:03.515Z,1001.09
2019-05-10T01:57:12.729Z,1001.12
2019-05-10T01:58:21.946Z,1001.12
2019-05-10T01:59:30.958Z,1001.15
2019-05-10T02:00:40.666Z,1001.14
2019-05-10T02:01:50.142Z,1001.14
2019-05-10T02:02:59.119Z,1001.14
2019-05-10T02:04:08.821Z,1001.14
2019-05-10T02:05:22.440Z,1001.17
2019-05-10T02:06:31.733Z,1001.18
2019-05-10T02:07:40.918Z,1001.14
2019-05-10T02:08:50.701Z,1001.13
2019-05-10T02:10:00.452Z,1001.18
2019-05-10T02:11:10.191Z,1001.12
2019-05-10T02:12:19.201Z,1001.11
2019-05-10T02:13:28.631Z,1001.13
2019-05-10T02:14:37.830Z,1001.13
2019-05-10T02:15:47.265Z,1001.19
2019-05-10T02:16:56.798Z,1001.17
2019-05-10T02:18:06.495Z,1001.17
2019-05-10T02:19:15.935Z,1001.17
2019-05-10T02:20:25.384Z,1001.15
2019-05-10T02:21:35.613Z,1001.19
2019-05-10T02:22:45.304Z,1001.18
2019-05-10T02:23:54.590Z,1001.14
2019-05-10T02:25:03.788Z,1001.19
2019-05-10T02:26:12.977Z,1001.16
2019-05-10T02:27:22.644Z,1001.13
2019-05-10T02:28:32.148Z,1001.17
2019-05-10T02:29:41.349Z,1001.2
2019-05-10T02:30:50.365Z,1001.16
2019-05-10T02:32:00.137Z,1001.14
2019-05-10T02:33:09.649Z,1001.18
2019-05-10T02:34:19.422Z,1001.16
2019-05-10T02:35:29.146Z,1001.21
2019-05-10T02:36:39.119Z,1001.21
2019-05-10T02:37:48.836Z,1001.21
2019-05-10T02:38:58.315Z,1001.16
2019-05-10T02:40:08.025Z,1001.25
2019-05-10T02:41:17.732Z,1001.21
2019-05-10T02:42:27.299Z,1001.28
2019-05-10T02:43:37.298Z,1001.26
2019-05-10T02:44:46.756Z,1001.28
2019-05-10T02:45:56.028Z,1001.29
2019-05-10T02:47:05.244Z,1001.25
2019-05-10T02:48:14.485Z,1001.25
2019-05-10T02:49:23.955Z,1001.27
2019-05-10T02:50:33.437Z,1001.23
2019-05-10T02:51:43.121Z,1001.28
2019-05-10T02:52:53.073Z,1001.26
2019-05-10T02:54:03.153Z,1001.25
2019-05-10T02:55:12.608Z,1001.26
2019-05-10T02:56:30.164Z,1001.27
2019-05-10T02:57:40.598Z,1001.29
2019-05-10T02:58:50.074Z,1001.27
2019-05-10T02:59:59.888Z,1001.32
2019-05-10T03:01:09.792Z,1001.33
2019-05-10T03:02:19.037Z,1001.28
2019-05-10T03:03:28.994Z,1001.31
2019-05-10T03:04:38.807Z,1001.32
2019-05-10T03:05:49.071Z,1001.3
2019-05-10T03:06:58.833Z,1001.36
2019-05-10T03:08:08.545Z,1001.37
2019-05-10T03:09:17.993Z,1001.4
2019-05-10T03:10:27.203Z,1001.37
2019-05-10T03:11:36.642Z,1001.39
2019-05-10T03:12:46.070Z,1001.42
2019-05-10T03:13:56.028Z,1001.38
2019-05-10T03:15:06.108Z,1001.38
2019-05-10T03:16:16.098Z,1001.39
2019-05-10T03:17:25.863Z,1001.42
2019-05-10T03:18:35.597Z,1001.43
2019-05-10T03:19:44.806Z,1001.45
2019-05-10T03:20:54.541Z,1001.43
2019-05-10T03:22:04.199Z,1001.45
2019-05-10T03:23:13.673Z,1001.44
2019-05-10T03:24:27.429Z,1001.45
2019-05-10T03:25:36.993Z,1001.49
2019-05-10T03:26:50.580Z,1001.48
2019-05-10T03:28:00.784Z,1001.51
2019-05-10T03:29:10.266Z,1001.54
2019-05-10T03:30:20.003Z,1001.59
2019-05-10T03:31:29.788Z,1001.57
2019-05-10T03:32:39.576Z,1001.57
2019-05-10T03:33:55.391Z,1001.59
2019-05-10T03:35:06.135Z,1001.66
2019-05-10T03:36:16.107Z,1001.63
2019-05-10T03:37:25.985Z,1001.7
2019-05-10T03:38:35.194Z,1001.67
2019-05-10T03:39:44.641Z,1001.71
2019-05-10T03:40:54.634Z,1001.68
2019-05-10T03:42:04.155Z,1001.67
2019-05-10T03:43:13.382Z,1001.73
2019-05-10T03:44:22.852Z,1001.7
2019-05-10T03:45:32.590Z,1001.75
2019-05-10T03:46:42.063Z,1001.8
2019-05-10T03:47:51.784Z,1001.75
2019-05-10T03:49:01.272Z,1001.79
2019-05-10T03:50:10.989Z,1001.76
2019-05-10T03:51:20.433Z,1001.73
2019-05-10T03:52:30.399Z,1001.77
2019-05-10T03:53:39.624Z,1001.8
2019-05-10T03:54:49.388Z,1001.77
2019-05-10T03:55:58.881Z,1001.77
2019-05-10T03:57:13.533Z,1001.76
2019-05-10T03:58:23.216Z,1001.76
2019-05-10T03:59:32.940Z,1001.75
2019-05-10T04:00:42.407Z,1001.74
2019-05-10T04:01:51.862Z,1001.79
2019-05-10T04:03:01.831Z,1001.77
2019-05-10T04:04:11.810Z,1001.8
2019-05-10T04:05:21.291Z,1001.83
2019-05-10T04:06:31.256Z,1001.83
2019-05-10T04:07:40.989Z,1001.8
2019-05-10T04:08:50.783Z,1001.8
2019-05-10T04:10:00.230Z,1001.83
2019-05-10T04:11:09.424Z,1001.88
2019-05-10T04:12:18.464Z,1001.87
2019-05-10T04:13:28.682Z,1001.84
2019-05-10T04:14:37.930Z,1001.87
2019-05-10T04:15:47.428Z,1001.9
2019-05-10T04:16:56.894Z,1001.95
2019-05-10T04:18:06.414Z,1001.96
2019-05-10T04:19:15.903Z,1001.93
2019-05-10T04:20:25.921Z,1001.98
2019-05-10T04:21:35.148Z,1002.02
2019-05-10T04:22:44.718Z,1002.02
2019-05-10T04:23:54.697Z,1002.03
2019-05-10T04:25:04.474Z,1002.03
2019-05-10T04:26:14.195Z,1002.06
2019-05-10T04:27:31.913Z,1002.07
2019-05-10T04:28:42.514Z,1002.07
2019-05-10T04:29:52.244Z,1002.12
2019-05-10T04:31:02.667Z,1002.12
2019-05-10T04:32:12.415Z,1002.15
2019-05-10T04:33:21.670Z,1002.15
2019-05-10T04:34:31.365Z,1002.16
2019-05-10T04:35:41.098Z,1002.15
2019-05-10T04:36:51.060Z,1002.22
2019-05-10T04:38:00.504Z,1002.22
2019-05-10T04:39:10.230Z,1002.2
2019-05-10T04:40:20.186Z,1002.2
2019-05-10T04:41:30.276Z,1002.24
2019-05-10T04:42:39.527Z,1002.28
2019-05-10T04:43:49.243Z,1002.26
2019-05-10T04:44:58.686Z,1002.23
2019-05-10T04:46:07.953Z,1002.27
2019-05-10T04:47:17.954Z,1002.28
2019-05-10T04:48:27.713Z,1002.25
2019-05-10T04:49:37.670Z,1002.27
2019-05-10T04:50:49.149Z,1002.3
2019-05-10T04:51:58.986Z,1002.32
2019-05-10T04:53:08.694Z,1002.35
2019-05-10T04:54:17.407Z,1002.35
2019-05-10T04:55:26.984Z,1002.35
2019-05-10T04:56:36.695Z,1002.37
2019-05-10T04:57:50.254Z,1002.37
2019-05-10T04:59:00.381Z,1002.41
2019-05-10T05:00:10.343Z,1002.42
2019-05-10T05:01:19.800Z,1002.41
2019-05-10T05:02:29.548Z,1002.45
2019-05-10T05:03:39.337Z,1002.46
2019-05-10T05:04:48.820Z,1002.5
2019-05-10T05:05:58.561Z,1002.5
2019-05-10T05:07:08.293Z,1002.51
2019-05-10T05:08:17.485Z,1002.5
2019-05-10T05:09:26.957Z,1002.51
2019-05-10T05:10:36.181Z,1002.52
2019-05-10T05:11:45.366Z,1002.55
2019-05-10T05:12:54.586Z,1002.56
2019-05-10T05:14:04.258Z,1002.56
2019-05-10T05:15:17.190Z,1002.49
2019-05-10T05:16:27.312Z,1002.53
2019-05-10T05:17:36.064Z,1002.55
2019-05-10T05:18:45.757Z,1002.58
2019-05-10T05:19:54.953Z,1002.54
2019-05-10T05:21:04.297Z,1002.58
2019-05-10T05:22:13.520Z,1002.55
2019-05-10T05:23:22.713Z,1002.59
2019-05-10T05:24:32.492Z,1002.59
2019-05-10T05:25:41.992Z,1002.62
2019-05-10T05:26:51.732Z,1002.57
2019-05-10T05:28:07.754Z,1002.62
2019-05-10T05:29:24.148Z,1002.61
2019-05-10T05:30:33.343Z,1002.67
2019-05-10T05:31:45.907Z,1002.69
2019-05-10T05:33:04.390Z,1002.67
2019-05-10T05:34:13.677Z,1002.65
2019-05-10T05:35:22.877Z,1002.67
2019-05-10T05:36:32.333Z,1002.67
2019-05-10T05:37:42.018Z,1002.7
2019-05-10T05:38:50.978Z,1002.69
2019-05-10T05:40:00.187Z,1002.73
2019-05-10T05:41:10.610Z,1002.73
2019-05-10T05:42:22.188Z,1002.75
2019-05-10T05:43:35.390Z,1002.77
2019-05-10T05:44:53.560Z,1002.76
2019-05-10T05:46:02.818Z,1002.82
2019-05-10T05:47:14.992Z,1002.82
2019-05-10T05:48:32.393Z,1002.85
2019-05-10T05:49:51.717Z,1002.84
2019-05-10T05:51:00.970Z,1002.85
2019-05-10T05:52:10.252Z,1002.86
2019-05-10T05:53:22.316Z,1002.85
2019-05-10T05:54:41.570Z,1002.88
2019-05-10T05:56:03.059Z,1002.92
2019-05-10T05:57:22.098Z,1002.89
2019-05-10T05:58:37.935Z,1002.93
2019-05-10T05:59:57.269Z,1002.96
2019-05-10T06:01:24.240Z,1002.99
2019-05-10T06:02:43.901Z,1002.99
2019-05-10T06:03:54.003Z,1003.01
2019-05-10T06:05:32.143Z,1003.05
2019-05-10T06:06:44.751Z,1003.05
2019-05-10T06:08:01.796Z,1003.06
2019-05-10T06:09:31.907Z,1003.08
2019-05-10T06:10:55.924Z,1003.1
2019-05-10T06:12:12.544Z,1003.12
2019-05-10T06:13:23.214Z,1003.14
2019-05-10T06:14:42.972Z,1003.18
2019-05-10T06:15:59.972Z,1003.15
2019-05-10T06:17:23.601Z,1003.18
2019-05-10T06:18:41.503Z,1003.18
2019-05-10T06:19:54.445Z,1003.23
2019-05-10T06:21:17.727Z,1003.21
2019-05-10T06:22:38.031Z,1003.19
2019-05-10T06:24:13.219Z,1003.23
2019-05-10T06:25:37.162Z,1003.26
2019-05-10T06:26:50.306Z,1003.29
2019-05-10T06:28:24.361Z,1003.29
2019-05-10T06:30:20.424Z,1003.26
2019-05-10T06:31:30.773Z,1003.33
2019-05-10T06:32:40.287Z,1003.3
2019-05-10T06:33:59.828Z,1003.38
2019-05-10T06:35:13.996Z,1003.35
2019-05-10T06:36:26.841Z,1003.37
2019-05-10T06:37:36.961Z,1003.4
2019-05-10T06:38:46.165Z,1003.42
2019-05-10T06:39:56.195Z,1003.46
2019-05-10T06:41:09.960Z,1003.46
2019-05-10T06:42:28.658Z,1003.46
2019-05-10T06:43:45.544Z,1003.49
2019-05-10T06:45:04.307Z,1003.51
2019-05-10T06:46:23.509Z,1003.53
2019-05-10T06:47:41.822Z,1003.53
2019-05-10T06:49:06.892Z,1003.54
2019-05-10T06:50:28.502Z,1003.58
2019-05-10T06:51:42.648Z,1003.56
2019-05-10T06:53:00.329Z,1003.61
2019-05-10T06:54:18.332Z,1003.66
2019-05-10T06:55:28.066Z,1003.67
2019-05-10T06:56:37.018Z,1003.63
2019-05-10T06:57:49.860Z,1003.65
2019-05-10T06:59:13.278Z,1003.63
2019-05-10T07:00:30.491Z,1003.68
2019-05-10T07:01:51.996Z,1003.67
2019-05-10T07:03:01.947Z,1003.73
2019-05-10T07:04:11.405Z,1003.72
2019-05-10T07:05:21.085Z,1003.76
2019-05-10T07:06:30.400Z,1003.83
2019-05-10T07:07:44.365Z,1003.72
2019-05-10T07:09:07.513Z,1003.77
2019-05-10T07:10:19.249Z,1003.8
2019-05-10T07:11:36.648Z,1003.79
2019-05-10T07:12:46.681Z,1003.8
2019-05-10T07:14:09.680Z,1003.88
2019-05-10T07:15:28.135Z,1003.92
2019-05-10T07:16:47.227Z,1003.94
2019-05-10T07:18:05.752Z,1003.95
2019-05-10T07:19:23.277Z,1003.99
2019-05-10T07:20:55.283Z,1004.04
2019-05-10T07:22:12.326Z,1004.03
2019-05-10T07:23:30.330Z,1004.04
2019-05-10T07:24:48.906Z,1004.01
2019-05-10T07:26:10.233Z,1004.02
2019-05-10T07:27:36.494Z,1004.05
2019-05-10T07:28:51.585Z,1004.07
2019-05-10T07:30:04.962Z,1004.09
2019-05-10T07:31:14.438Z,1004.08
2019-05-10T07:32:28.438Z,1004.08
2019-05-10T07:33:40.073Z,1004.14
2019-05-10T07:34:58.270Z,1004.13
2019-05-10T07:36:14.624Z,1004.18
2019-05-10T07:37:33.662Z,1004.22
2019-05-10T07:38:51.723Z,1004.24
2019-05-10T07:40:08.975Z,1004.28
2019-05-10T07:41:19.300Z,1004.3
2019-05-10T07:42:39.632Z,1004.29
2019-05-10T07:43:52.620Z,1004.32
2019-05-10T07:45:18.597Z,1004.37
2019-05-10T07:46:33.507Z,1004.35
2019-05-10T07:48:02.257Z,1004.36
2019-05-10T07:49:16.013Z,1004.37
2019-05-10T07:50:33.567Z,1004.35
2019-05-10T07:51:54.193Z,1004.38
2019-05-10T07:53:09.869Z,1004.41
2019-05-10T07:54:28.171Z,1004.46
2019-05-10T07:55:50.470Z,1004.5
2019-05-10T07:57:09.270Z,1004.47
2019-05-10T07:58:27.737Z,1004.51
2019-05-10T07:59:50.427Z,1004.55
2019-05-10T08:01:09.428Z,1004.62
2019-05-10T08:02:35.436Z,1004.64
2019-05-10T08:04:08.949Z,1004.63
2019-05-10T08:05:39.196Z,1004.69
2019-05-10T08:07:07.434Z,1004.71
2019-05-10T08:08:21.160Z,1004.72
2019-05-10T08:09:36.869Z,1004.74
2019-05-10T08:10:53.754Z,1004.7
2019-05-10T08:12:05.202Z,1004.7
2019-05-10T08:13:25.026Z,1004.7
2019-05-10T08:14:35.603Z,1004.69
2019-05-10T08:15:55.323Z,1004.74
2019-05-10T08:17:20.493Z,1004.74
2019-05-10T08:18:35.952Z,1004.76
2019-05-10T08:19:50.296Z,1004.79
2019-05-10T08:21:03.114Z,1004.74
2019-05-10T08:22:41.125Z,1004.81
2019-05-10T08:23:58.919Z,1004.82
2019-05-10T08:25:23.140Z,1004.83
2019-05-10T08:26:54.852Z,1004.83
2019-05-10T08:28:27.820Z,1004.83
2019-05-10T08:29:50.883Z,1004.87
2019-05-10T08:31:40.273Z,1004.94
2019-05-10T08:33:09.257Z,1004.93
2019-05-10T08:34:23.407Z,1004.98
2019-05-10T08:36:00.437Z,1005.04
2019-05-10T08:37:17.816Z,1005.06
2019-05-10T08:38:51.360Z,1005.06
2019-05-10T08:40:19.578Z,1005.08
2019-05-10T08:41:46.022Z,1005.13
2019-05-10T08:43:54.848Z,1005.13
2019-05-10T08:45:24.386Z,1005.1
2019-05-10T08:46:41.337Z,1005.12
2019-05-10T08:48:00.567Z,1005.15
2019-05-10T08:49:15.690Z,1005.17
2019-05-10T08:51:07.723Z,1005.16
2019-05-10T08:52:24.857Z,1005.16
2019-05-10T08:53:39.106Z,1005.17
2019-05-10T08:54:58.962Z,1005.18
2019-05-10T08:56:20.579Z,1005.16
2019-05-10T08:57:34.670Z,1005.18
2019-05-10T08:58:57.499Z,1005.22
2019-05-10T09:00:40.863Z,1005.26
2019-05-10T09:02:45.375Z,1005.26
2019-05-10T09:04:10.947Z,1005.26
2019-05-10T09:05:28.755Z,1005.33
2019-05-10T09:06:47.375Z,1005.35
2019-05-10T09:08:06.056Z,1005.34
2019-05-10T09:09:43.007Z,1005.36
2019-05-10T09:10:58.443Z,1005.4
2019-05-10T09:12:13.206Z,1005.41
2019-05-10T09:13:23.633Z,1005.4
2019-05-10T09:14:48.792Z,1005.38
2019-05-10T09:16:16.510Z,1005.4
2019-05-10T09:17:42.584Z,1005.41
2019-05-10T09:18:53.658Z,1005.42
2019-05-10T09:20:05.463Z,1005.42
2019-05-10T09:21:32.494Z,1005.49
2019-05-10T09:22:57.737Z,1005.49
2019-05-10T09:24:23.207Z,1005.53
2019-05-10T09:25:35.215Z,1005.54
2019-05-10T09:26:52.641Z,1005.61
2019-05-10T09:28:11.385Z,1005.64
2019-05-10T09:29:27.264Z,1005.64
2019-05-10T09:30:56.081Z,1005.66
2019-05-10T09:32:33.465Z,1005.69
2019-05-10T09:33:49.407Z,1005.67
2019-05-10T09:35:07.461Z,1005.77
2019-05-10T09:36:22.971Z,1005.76
2019-05-10T09:37:53.752Z,1005.76
2019-05-10T09:39:08.988Z,1005.76
2019-05-10T09:40:32.786Z,1005.81
2019-05-10T09:42:07.554Z,1005.84
2019-05-10T09:43:48.624Z,1005.86
2019-05-10T09:45:03.429Z,1005.91
2019-05-10T09:46:15.644Z,1005.86
2019-05-10T09:47:27.813Z,1005.95
2019-05-10T09:48:38.054Z,1005.89
2019-05-10T09:50:08.473Z,1005.89
2019-05-10T09:51:25.376Z,1005.91
2019-05-10T09:52:42.818Z,1005.93
2019-05-10T09:53:52.028Z,1005.93
2019-05-10T09:55:09.976Z,1005.96
2019-05-10T09:56:24.487Z,1005.92
2019-05-10T09:57:52.401Z,1005.92
2019-05-10T09:59:02.894Z,1005.99
2019-05-10T10:00:13.513Z,1005.96
2019-05-10T10:01:24.856Z,1005.97
2019-05-10T10:02:40.458Z,1006.01
2019-05-10T10:04:04.353Z,1006.03
2019-05-10T10:05:13.561Z,1006.04
2019-05-10T10:06:25.002Z,1006
2019-05-10T10:07:42.471Z,1006.01
2019-05-10T10:08:53.635Z,1006
2019-05-10T10:10:12.586Z,1006.03
2019-05-10T10:11:39.748Z,1006
2019-05-10T10:13:13.145Z,1006.1
2019-05-10T10:15:02.748Z,1006.09
2019-05-10T10:16:37.825Z,1006.09
2019-05-10T10:18:03.899Z,1006.13
2019-05-10T10:19:27.759Z,1006.14
2019-05-10T10:20:44.907Z,1006.13
2019-05-10T10:21:57.593Z,1006.19
2019-05-10T10:23:13.841Z,1006.21
2019-05-10T10:24:40.946Z,1006.19
2019-05-10T10:26:01.118Z,1006.19
2019-05-10T10:27:25.870Z,1006.16
2019-05-10T10:28:49.496Z,1006.16
2019-05-10T10:30:12.168Z,1006.17
2019-05-10T10:31:33.467Z,1006.15
2019-05-10T10:33:05.602Z,1006.14
2019-05-10T10:34:32.495Z,1006.16
2019-05-10T10:35:56.100Z,1006.18
2019-05-10T10:37:20.265Z,1006.19
2019-05-10T10:38:45.153Z,1006.2
2019-05-10T10:40:00.406Z,1006.18
2019-05-10T10:41:25.782Z,1006.15
2019-05-10T10:42:39.291Z,1006.16
2019-05-10T10:43:49.951Z,1006.17
2019-05-10T10:45:00.956Z,1006.18
2019-05-10T10:46:12.691Z,1006.21
2019-05-10T10:47:32.074Z,1006.21
2019-05-10T10:48:43.491Z,1006.18
2019-05-10T10:49:57.873Z,1006.19
2019-05-10T10:51:18.156Z,1006.19
2019-05-10T10:52:37.403Z,1006.18
2019-05-10T10:53:47.005Z,1006.16
2019-05-10T10:55:00.757Z,1006.18
2019-05-10T10:56:21.519Z,1006.18
2019-05-10T10:57:32.675Z,1006.13
2019-05-10T10:58:44.172Z,1006.15
2019-05-10T10:59:58.393Z,1006.17
2019-05-10T11:01:19.836Z,1006.14
2019-05-10T11:03:30.842Z,1006.12
2019-05-10T11:04:46.496Z,1006.09
2019-05-10T11:05:56.216Z,1006.13
2019-05-10T11:07:10.197Z,1006.14
2019-05-10T11:08:20.294Z,1006.16
2019-05-10T11:09:33.514Z,1006.17
2019-05-10T11:10:46.117Z,1006.18
2019-05-10T11:11:58.003Z,1006.21
2019-05-10T11:13:12.085Z,1006.17
2019-05-10T11:15:07.934Z,1006.15
2019-05-10T11:16:35.985Z,1006.14
2019-05-10T11:17:56.246Z,1006.13
2019-05-10T11:19:10.988Z,1006.12
2019-05-10T11:20:25.230Z,1006.1
2019-05-10T11:21:36.586Z,1006.13
2019-05-10T11:22:51.709Z,1006.1
2019-05-10T11:24:02.346Z,1006.09
2019-05-10T11:25:26.877Z,1006.07
2019-05-10T11:26:37.017Z,1006.1
2019-05-10T11:27:53.678Z,1006.13
2019-05-10T11:29:13.839Z,1006.1
2019-05-10T11:30:35.643Z,1006.1
2019-05-10T11:31:48.178Z,1006.1
2019-05-10T11:33:29.772Z,1006.14
2019-05-10T11:34:52.598Z,1006.12
2019-05-10T11:36:08.528Z,1006.16
2019-05-10T11:37:30.842Z,1006.18
2019-05-10T11:38:53.390Z,1006.19
2019-05-10T11:40:41.835Z,1006.18
2019-05-10T11:42:00.831Z,1006.2
2019-05-10T11:43:23.506Z,1006.26
2019-05-10T11:44:41.279Z,1006.21
2019-05-10T11:46:03.682Z,1006.26
2019-05-10T11:47:23.841Z,1006.2
2019-05-10T11:48:39.550Z,1006.24
2019-05-10T11:49:53.484Z,1006.2
2019-05-10T11:51:15.870Z,1006.26
2019-05-10T11:52:29.011Z,1006.26
2019-05-10T11:53:43.680Z,1006.25
